Time;durP1;ratioP1;P1;durP2;ratioP2;P2;SDS_P1;SDS_P2;PMS_P1;PMS_P2;Temp;Humidity;BMP_temperature;BMP_pressure;BME280_temperature;BME280_humidity;BME280_pressure;Samples;Min_cycle;Max_cycle;Signal;HPM_P1;HPM_P2
2023/11/08 00:03:26;;;;;;;2.40;2.20;;;9.30;99.90;;;;;;10445189;28;20616;-78
2023/11/08 00:08:28;;;;;;;2.47;2.27;;;9.30;99.90;;;;;;10446686;28;20222;-77
2023/11/08 00:13:30;;;;;;;2.80;2.50;;;9.20;99.90;;;;;;10447086;28;20710;-76
2023/11/08 00:18:34;;;;;;;3.73;2.53;;;9.30;99.90;;;;;;10448234;28;20642;-78
2023/11/08 00:23:37;;;;;;;3.33;2.10;;;9.30;99.90;;;;;;10446071;28;20733;-78
2023/11/08 00:28:39;;;;;;;2.70;1.80;;;9.30;99.90;;;;;;10444251;28;20302;-78
2023/11/08 00:33:43;;;;;;;1.87;1.77;;;9.40;99.90;;;;;;10445664;28;20193;-78
2023/11/08 00:38:46;;;;;;;3.57;2.27;;;9.50;99.90;;;;;;10447888;28;20213;-78
2023/11/08 00:43:49;;;;;;;2.00;1.90;;;9.60;99.90;;;;;;10448003;28;20650;-78
2023/11/08 00:48:53;;;;;;;2.10;1.80;;;9.70;99.90;;;;;;10447288;28;20217;-78
2023/11/08 00:53:56;;;;;;;2.40;2.20;;;9.80;99.90;;;;;;10448198;28;20185;-78
2023/11/08 00:58:58;;;;;;;3.20;2.47;;;9.80;99.90;;;;;;10445379;28;20222;-78
2023/11/08 01:04:03;;;;;;;2.80;2.13;;;9.80;99.90;;;;;;10444349;28;20221;-78
2023/11/08 01:09:07;;;;;;;3.47;2.30;;;9.70;99.90;;;;;;10434574;28;20239;-78
2023/11/08 01:14:10;;;;;;;4.90;2.40;;;9.70;99.90;;;;;;10419721;28;20329;-78
2023/11/08 01:19:14;;;;;;;3.10;2.10;;;9.60;99.90;;;;;;10446608;28;20213;-78
2023/11/08 01:24:17;;;;;;;4.80;2.00;;;9.50;99.90;;;;;;10448549;28;20225;-79
2023/11/08 01:29:19;;;;;;;2.70;2.13;;;9.50;99.90;;;;;;10448058;28;20224;-78
2023/11/08 01:34:23;;;;;;;2.30;2.00;;;9.40;99.90;;;;;;10420969;28;20275;-78
2023/11/08 01:39:26;;;;;;;3.73;2.40;;;9.30;99.90;;;;;;10441047;28;20259;-78
2023/11/08 01:44:28;;;;;;;2.90;2.10;;;9.30;99.90;;;;;;10445304;28;20221;-77
2023/11/08 01:49:32;;;;;;;6.50;3.40;;;9.30;99.90;;;;;;10415096;28;20259;-78
2023/11/08 01:54:35;;;;;;;4.57;2.90;;;9.20;99.90;;;;;;10416786;28;20214;-79
2023/11/08 01:59:37;;;;;;;4.90;2.83;;;9.20;99.90;;;;;;10412907;28;20206;-78
2023/11/08 02:04:41;;;;;;;6.07;2.33;;;9.20;99.90;;;;;;10408916;28;20230;-78
2023/11/08 02:09:44;;;;;;;3.60;2.83;;;9.10;99.90;;;;;;10433247;28;20247;-78
2023/11/08 02:15:03;;;;;;;2.70;2.23;;;9.10;99.90;;;;;;10415721;28;20257;-78
2023/11/08 02:20:09;;;;;;;2.57;2.30;;;9.00;99.90;;;;;;10414018;28;20251;-78
2023/11/08 02:25:16;;;;;;;2.47;1.90;;;9.00;99.90;;;;;;10410985;28;20284;-78
2023/11/08 02:30:18;;;;;;;2.70;2.27;;;9.00;99.90;;;;;;10415197;28;20537;-78
2023/11/08 02:35:21;;;;;;;1.93;1.83;;;9.00;99.90;;;;;;10424785;28;20234;-78
2023/11/08 02:40:25;;;;;;;2.43;2.10;;;9.00;99.90;;;;;;10446538;28;20264;-78
2023/11/08 02:45:27;;;;;;;3.30;1.70;;;9.00;99.90;;;;;;10427443;28;20225;-79
2023/11/08 02:50:30;;;;;;;7.00;2.43;;;9.00;99.90;;;;;;10427877;28;20275;-78
2023/11/08 02:55:35;;;;;;;2.33;1.93;;;9.00;99.90;;;;;;10426221;28;20218;-78
2023/11/08 03:00:37;;;;;;;2.60;2.30;;;9.00;99.90;;;;;;10458635;28;20316;-78
2023/11/08 03:05:39;;;;;;;1.90;1.70;;;9.00;99.90;;;;;;10457803;28;20217;-78
2023/11/08 03:10:43;;;;;;;2.40;2.20;;;9.00;99.90;;;;;;10458628;28;20827;-78
2023/11/08 03:15:45;;;;;;;1.80;1.70;;;9.00;99.90;;;;;;10417977;28;20245;-78
2023/11/08 03:20:48;;;;;;;3.57;1.97;;;9.00;99.90;;;;;;10419470;28;20202;-78
2023/11/08 03:25:51;;;;;;;2.40;2.20;;;9.00;99.90;;;;;;10425325;28;20226;-77
2023/11/08 03:30:54;;;;;;;5.10;2.67;;;9.00;99.90;;;;;;10429587;28;20282;-79
2023/11/08 03:35:56;;;;;;;3.30;1.87;;;9.00;99.90;;;;;;10440998;28;20224;-78
2023/11/08 03:41:01;;;;;;;2.00;1.87;;;9.00;99.90;;;;;;10453474;28;20194;-78
2023/11/08 03:46:03;;;;;;;2.60;2.40;;;9.00;99.90;;;;;;10448583;28;20229;-78
2023/11/08 03:51:06;;;;;;;3.00;2.77;;;9.10;99.90;;;;;;10455649;28;20201;-78
2023/11/08 03:56:10;;;;;;;2.47;2.13;;;9.10;99.90;;;;;;10455858;28;20265;-78
2023/11/08 04:01:13;;;;;;;3.90;2.63;;;9.10;99.90;;;;;;10455286;28;20209;-78
2023/11/08 04:06:15;;;;;;;2.17;2.00;;;9.10;99.90;;;;;;10455973;28;20224;-78
2023/11/08 04:11:19;;;;;;;3.40;2.50;;;9.20;99.90;;;;;;10456006;28;20220;-77
2023/11/08 04:16:21;;;;;;;2.63;2.47;;;9.30;99.90;;;;;;10453919;28;20228;-78
2023/11/08 04:21:26;;;;;;;4.30;2.90;;;9.40;99.90;;;;;;10453679;28;20193;-78
2023/11/08 04:26:30;;;;;;;2.43;2.23;;;9.40;99.90;;;;;;10455411;28;20274;-78
2023/11/08 04:31:32;;;;;;;2.30;2.10;;;9.40;99.90;;;;;;10454067;28;20643;-78
2023/11/08 04:36:35;;;;;;;6.00;2.60;;;9.50;99.90;;;;;;10455907;28;20262;-78
2023/11/08 04:41:39;;;;;;;2.33;2.20;;;9.50;99.90;;;;;;10455788;28;20201;-78
2023/11/08 04:46:42;;;;;;;2.17;1.97;;;9.50;99.90;;;;;;10456073;28;20283;-78
2023/11/08 04:51:44;;;;;;;2.93;2.73;;;9.50;99.90;;;;;;10457196;28;20259;-78
2023/11/08 04:56:48;;;;;;;2.33;2.10;;;9.50;99.90;;;;;;10455245;28;20239;-79
2023/11/08 05:01:50;;;;;;;3.10;2.80;;;9.60;99.90;;;;;;10453026;28;20797;-78
2023/11/08 05:06:52;;;;;;;2.50;2.40;;;9.60;99.90;;;;;;10454536;28;20220;-78
2023/11/08 05:11:56;;;;;;;11.13;7.23;;;9.60;99.90;;;;;;10455246;28;20193;-78
2023/11/08 05:16:58;;;;;;;11.63;7.80;;;9.50;99.90;;;;;;10453533;28;20225;-77
2023/11/08 05:22:01;;;;;;;3.70;2.77;;;9.40;99.90;;;;;;10455959;28;20197;-78
2023/11/08 05:27:05;;;;;;;2.40;2.20;;;9.40;99.90;;;;;;10456140;28;20221;-78
2023/11/08 05:32:09;;;;;;;2.20;2.10;;;9.40;99.90;;;;;;10457610;28;20200;-78
2023/11/08 05:37:11;;;;;;;3.43;2.60;;;9.30;99.90;;;;;;10439798;28;20729;-78
2023/11/08 05:42:16;;;;;;;2.97;2.10;;;9.30;99.90;;;;;;10451473;28;20212;-78
2023/11/08 05:47:19;;;;;;;5.60;2.90;;;9.20;99.90;;;;;;10449302;28;20228;-78
2023/11/08 05:52:21;;;;;;;3.40;2.90;;;9.20;99.90;;;;;;10451147;28;20255;-78
2023/11/08 05:57:25;;;;;;;2.97;2.70;;;9.10;99.90;;;;;;10449873;28;20209;-77
2023/11/08 06:02:27;;;;;;;3.17;2.87;;;9.10;99.90;;;;;;10433210;22;20660;-77
2023/11/08 06:07:30;;;;;;;3.90;2.67;;;9.00;99.90;;;;;;10404135;28;20644;-77
2023/11/08 06:12:33;;;;;;;3.80;2.73;;;9.00;99.90;;;;;;10429350;28;20217;-77
2023/11/08 06:17:36;;;;;;;3.00;2.63;;;9.00;99.90;;;;;;10437344;28;20204;-77
2023/11/08 06:22:39;;;;;;;3.23;2.83;;;9.00;99.90;;;;;;10453321;28;20220;-77
2023/11/08 06:27:42;;;;;;;3.13;2.80;;;9.00;99.90;;;;;;10455756;28;20217;-78
2023/11/08 06:32:45;;;;;;;3.20;2.90;;;9.00;99.90;;;;;;10455455;28;20263;-78
2023/11/08 06:37:47;;;;;;;3.30;3.00;;;9.00;99.90;;;;;;10454592;28;20189;-77
2023/11/08 06:42:51;;;;;;;2.83;2.70;;;9.00;99.90;;;;;;10455405;28;20209;-75
2023/11/08 06:47:53;;;;;;;2.83;2.50;;;9.10;99.90;;;;;;10454724;28;20217;-75
2023/11/08 06:52:56;;;;;;;2.80;2.50;;;9.10;99.90;;;;;;10436919;28;20209;-75
2023/11/08 06:58:00;;;;;;;6.40;2.87;;;9.20;99.90;;;;;;10449691;28;20216;-74
2023/11/08 07:03:04;;;;;;;4.07;3.00;;;9.20;99.90;;;;;;10450816;28;20213;-75
2023/11/08 07:08:06;;;;;;;2.90;2.57;;;9.20;99.90;;;;;;10450864;28;20271;-76
2023/11/08 07:13:10;;;;;;;3.10;2.30;;;9.20;99.90;;;;;;10454218;28;20217;-75
2023/11/08 07:18:14;;;;;;;3.70;2.10;;;9.20;99.90;;;;;;10453593;28;20255;-75
2023/11/08 07:23:16;;;;;;;2.53;2.00;;;9.30;99.90;;;;;;10453789;28;20602;-76
2023/11/08 07:28:20;;;;;;;2.83;2.40;;;9.30;99.90;;;;;;10452908;28;20221;-76
2023/11/08 07:33:23;;;;;;;8.00;4.53;;;9.40;99.90;;;;;;10453276;28;20200;-76
2023/11/08 07:38:25;;;;;;;2.53;2.43;;;9.40;99.90;;;;;;10453750;28;20247;-77
2023/11/08 07:43:29;;;;;;;2.40;2.10;;;9.40;99.90;;;;;;10455694;28;20205;-77
2023/11/08 07:48:32;;;;;;;2.63;2.20;;;9.50;99.90;;;;;;10454934;28;20645;-78
2023/11/08 07:53:35;;;;;;;3.47;1.90;;;9.50;99.90;;;;;;10472291;28;20219;-78
2023/11/08 07:58:38;;;;;;;4.73;2.43;;;9.50;99.90;;;;;;10452671;28;20263;-78
2023/11/08 08:03:42;;;;;;;2.00;1.87;;;9.50;99.90;;;;;;10454088;28;20197;-77
2023/11/08 08:08:45;;;;;;;3.10;2.43;;;9.50;99.90;;;;;;10461779;28;20229;-78
2023/11/08 08:13:49;;;;;;;2.40;2.20;;;9.60;99.90;;;;;;10453951;28;20201;-78
2023/11/08 08:18:51;;;;;;;2.90;1.80;;;9.60;99.90;;;;;;10452845;28;20217;-77
2023/11/08 08:23:54;;;;;;;2.07;1.97;;;9.70;99.90;;;;;;10450384;28;20193;-77
2023/11/08 08:28:57;;;;;;;4.70;1.90;;;9.70;99.90;;;;;;10450175;28;20221;-78
2023/11/08 08:34:00;;;;;;;2.23;2.10;;;9.80;99.90;;;;;;10442457;28;20700;-77
2023/11/08 08:39:03;;;;;;;3.13;2.13;;;9.80;99.90;;;;;;10441244;28;20213;-77
2023/11/08 08:44:07;;;;;;;2.17;1.97;;;9.90;99.90;;;;;;10429074;28;20205;-78
2023/11/08 08:49:09;;;;;;;3.03;1.93;;;10.00;99.90;;;;;;10429505;28;20237;-78
2023/11/08 08:54:11;;;;;;;2.00;1.60;;;10.10;99.90;;;;;;10449401;28;20215;-77
2023/11/08 08:59:15;;;;;;;1.50;1.40;;;10.10;99.90;;;;;;10431776;28;20295;-77
2023/11/08 09:04:18;;;;;;;2.40;1.60;;;10.20;99.90;;;;;;10432182;28;20198;-77
2023/11/08 09:09:21;;;;;;;2.27;2.10;;;10.20;99.90;;;;;;10449801;28;20412;-77
2023/11/08 09:14:25;;;;;;;1.97;1.60;;;10.40;99.90;;;;;;10440551;28;20627;-78
2023/11/08 09:19:27;;;;;;;2.53;1.77;;;10.50;99.90;;;;;;10441811;28;20771;-77
2023/11/08 09:24:31;;;;;;;5.17;1.47;;;10.60;99.90;;;;;;10448690;28;20193;-76
2023/11/08 09:29:35;;;;;;;1.77;1.40;;;10.60;99.90;;;;;;10448475;28;20221;-75
2023/11/08 09:34:38;;;;;;;3.53;1.60;;;10.70;99.90;;;;;;10454954;28;20205;-78
2023/11/08 09:39:40;;;;;;;1.50;1.30;;;10.80;99.90;;;;;;10439752;28;20644;-75
2023/11/08 09:44:46;;;;;;;2.20;1.50;;;10.80;99.90;;;;;;10429020;28;20278;-75
2023/11/08 09:49:49;;;;;;;4.87;1.60;;;10.80;99.90;;;;;;10450437;28;20706;-76
2023/11/08 09:54:52;;;;;;;1.50;1.10;;;10.90;99.90;;;;;;10455668;28;20193;-76
2023/11/08 09:59:59;;;;;;;1.80;1.70;;;10.90;99.90;;;;;;10455975;28;20595;-76
2023/11/08 10:05:03;;;;;;;1.97;1.87;;;11.00;99.80;;;;;;10452031;28;20190;-75
2023/11/08 10:10:06;;;;;;;1.77;1.40;;;11.10;99.80;;;;;;10456299;28;20232;-76
2023/11/08 10:15:11;;;;;;;1.93;1.30;;;11.10;99.90;;;;;;10455744;28;20740;-76
2023/11/08 10:20:20;;;;;;;1.53;1.43;;;11.10;99.60;;;;;;10455719;28;20220;-76
2023/11/08 10:25:25;;;;;;;1.60;1.50;;;11.10;99.30;;;;;;10455345;28;20258;-76
2023/11/08 10:30:32;;;;;;;1.93;1.27;;;11.10;99.60;;;;;;10455406;28;20685;-76
2023/11/08 10:35:37;;;;;;;2.10;1.63;;;11.10;99.70;;;;;;10437355;28;20243;-76
2023/11/08 10:40:44;;;;;;;1.20;1.10;;;11.20;99.30;;;;;;10454001;28;20724;-77
2023/11/08 10:45:49;;;;;;;2.67;1.50;;;11.30;99.70;;;;;;10451201;28;20203;-75
2023/11/08 10:50:52;;;;;;;6.20;1.60;;;11.50;99.40;;;;;;10451693;28;20216;-75
2023/11/08 10:55:59;;;;;;;3.93;2.30;;;11.70;99.20;;;;;;10450911;28;20185;-75
2023/11/08 11:01:04;;;;;;;2.13;1.30;;;11.90;99.60;;;;;;10450429;28;20228;-75
2023/11/08 11:06:07;;;;;;;1.57;1.47;;;12.10;99.20;;;;;;10452212;28;20780;-76
2023/11/08 11:11:10;;;;;;;1.60;1.50;;;12.20;99.40;;;;;;10438038;28;20229;-76
2023/11/08 11:16:22;;;;;;;3.07;1.47;;;12.10;98.90;;;;;;10433864;28;20564;-76
2023/11/08 11:21:26;;;;;;;2.13;1.90;;;12.00;98.90;;;;;;10451387;28;20625;-76
2023/11/08 11:26:45;;;;;;;7.97;3.60;;;12.00;99.20;;;;;;10440663;28;20213;-76
2023/11/08 11:31:49;;;;;;;1.80;1.70;;;12.00;99.60;;;;;;10453094;28;20229;-76
2023/11/08 11:37:05;;;;;;;1.37;1.27;;;12.00;99.80;;;;;;10453696;28;20201;-75
2023/11/08 11:42:13;;;;;;;1.63;1.37;;;12.10;99.80;;;;;;10451420;28;20236;-76
2023/11/08 11:47:21;;;;;;;3.17;2.07;;;12.20;99.20;;;;;;10449936;28;20225;-76
2023/11/08 11:52:24;;;;;;;1.90;1.63;;;12.30;99.20;;;;;;10449609;28;20232;-76
2023/11/08 11:57:29;;;;;;;2.03;1.33;;;12.40;99.00;;;;;;10450690;28;20247;-76
2023/11/08 12:02:33;;;;;;;1.37;1.37;;;12.40;99.20;;;;;;10514349;23;20235;-79
2023/11/08 12:07:37;;;;;;;1.30;1.20;;;12.50;99.30;;;;;;10536595;28;20210;-79
2023/11/08 12:12:39;;;;;;;2.60;1.30;;;12.50;98.70;;;;;;10522419;28;20223;-79
2023/11/08 12:17:48;;;;;;;4.93;1.73;;;12.60;98.80;;;;;;10534508;28;20214;-79
2023/11/08 12:22:51;;;;;;;1.27;1.20;;;12.50;98.70;;;;;;10534574;28;20257;-79
2023/11/08 12:27:55;;;;;;;1.47;1.37;;;12.50;99.30;;;;;;10536083;28;20212;-80
2023/11/08 12:32:59;;;;;;;1.47;1.47;;;12.50;99.70;;;;;;10535849;28;20226;-79
2023/11/08 12:38:02;;;;;;;1.67;1.57;;;12.60;99.10;;;;;;10532620;28;20192;-79
2023/11/08 12:43:14;;;;;;;1.87;1.30;;;12.50;99.30;;;;;;10514775;28;20223;-79
2023/11/08 12:48:18;;;;;;;2.03;1.77;;;12.60;99.30;;;;;;10512583;28;20269;-78
2023/11/08 12:53:21;;;;;;;5.03;2.30;;;12.60;99.40;;;;;;10530116;28;20228;-79
2023/11/08 12:58:24;;;;;;;1.10;1.00;;;12.60;98.30;;;;;;10528439;28;20188;-79
2023/11/08 13:03:29;;;;;;;2.10;1.10;;;12.60;97.30;;;;;;10525164;28;20231;-80
2023/11/08 13:08:32;;;;;;;3.10;1.23;;;12.70;97.30;;;;;;10522172;28;20597;-81
2023/11/08 13:13:35;;;;;;;0.90;0.90;;;12.70;97.00;;;;;;10511701;28;20242;-79
2023/11/08 13:18:39;;;;;;;1.63;1.13;;;12.80;96.30;;;;;;10512902;28;20192;-80
2023/11/08 13:23:42;;;;;;;1.13;1.03;;;12.80;96.60;;;;;;10492255;28;20208;-79
2023/11/08 13:28:44;;;;;;;1.43;1.33;;;12.90;96.30;;;;;;10498407;28;20251;-80
2023/11/08 13:33:48;;;;;;;1.83;1.00;;;12.80;96.50;;;;;;10496930;28;20704;-80
2023/11/08 13:38:51;;;;;;;1.30;1.03;;;12.90;96.00;;;;;;10478903;28;20669;-81
2023/11/08 13:43:53;;;;;;;2.40;1.60;;;12.80;95.80;;;;;;10498395;28;20208;-80
2023/11/08 13:48:57;;;;;;;11.20;2.10;;;12.80;96.00;;;;;;10488485;28;20255;-80
2023/11/08 13:53:59;;;;;;;1.83;1.30;;;12.70;96.20;;;;;;10505286;28;20196;-81
2023/11/08 13:59:03;;;;;;;2.67;0.97;;;12.80;96.30;;;;;;10505430;28;20208;-80
2023/11/08 14:04:06;;;;;;;1.87;1.30;;;12.80;96.40;;;;;;10506558;28;20196;-80
2023/11/08 14:09:12;;;;;;;2.53;1.00;;;12.80;96.60;;;;;;10502646;28;20228;-80
2023/11/08 14:14:14;;;;;;;2.40;1.73;;;12.80;96.30;;;;;;10503460;28;20196;-80
2023/11/08 14:19:19;;;;;;;1.33;1.23;;;12.70;97.00;;;;;;10502026;28;20216;-81
2023/11/08 14:24:21;;;;;;;1.50;1.40;;;12.70;97.00;;;;;;10503256;28;20200;-80
2023/11/08 14:29:26;;;;;;;1.53;1.43;;;12.60;97.20;;;;;;10498991;28;20228;-81
2023/11/08 14:34:29;;;;;;;3.20;2.10;;;12.60;97.50;;;;;;10506344;28;20250;-79
2023/11/08 14:39:32;;;;;;;1.87;1.67;;;12.60;97.00;;;;;;10501819;28;20641;-80
2023/11/08 14:44:34;;;;;;;1.83;1.73;;;12.50;96.10;;;;;;10508760;28;20193;-79
2023/11/08 14:49:38;;;;;;;4.40;1.90;;;12.50;96.50;;;;;;10499224;28;20228;-79
2023/11/08 14:54:42;;;;;;;1.60;1.50;;;12.40;96.80;;;;;;10490605;28;20200;-79
2023/11/08 14:59:47;;;;;;;2.30;1.50;;;12.20;96.90;;;;;;10480669;28;20224;-80
2023/11/08 15:04:51;;;;;;;2.23;2.03;;;12.10;96.90;;;;;;10504822;28;20189;-80
2023/11/08 15:09:53;;;;;;;1.80;1.70;;;12.10;96.90;;;;;;10502635;28;20232;-79
2023/11/08 15:14:56;;;;;;;1.53;1.43;;;12.00;97.30;;;;;;10501234;28;20200;-79
2023/11/08 15:19:59;;;;;;;10.07;1.93;;;12.00;97.70;;;;;;10504586;28;20228;-80
2023/11/08 15:25:04;;;;;;;2.30;1.70;;;11.90;97.40;;;;;;10499697;28;20267;-80
2023/11/08 15:30:08;;;;;;;5.50;2.87;;;12.00;97.80;;;;;;10482966;28;20281;-80
2023/11/08 15:35:12;;;;;;;4.73;4.30;;;11.90;97.50;;;;;;10500328;28;20209;-80
2023/11/08 15:40:14;;;;;;;2.07;1.87;;;11.90;97.70;;;;;;10503171;28;21038;-80
2023/11/08 15:45:17;;;;;;;5.43;2.00;;;11.90;97.80;;;;;;10501344;28;20686;-79
2023/11/08 15:50:21;;;;;;;1.80;1.70;;;11.90;98.20;;;;;;10508579;28;20231;-79
2023/11/08 15:55:26;;;;;;;2.50;1.57;;;11.80;98.60;;;;;;10507873;28;20200;-79
2023/11/08 16:00:29;;;;;;;2.50;1.90;;;11.70;98.90;;;;;;10504835;28;20225;-80
2023/11/08 16:05:34;;;;;;;4.00;2.10;;;11.60;99.30;;;;;;10486894;28;20204;-80
2023/11/08 16:10:37;;;;;;;1.97;1.87;;;11.50;99.40;;;;;;10486235;28;20323;-80
2023/11/08 16:15:40;;;;;;;1.93;1.83;;;11.30;99.60;;;;;;10501046;28;20211;-80
2023/11/08 16:20:46;;;;;;;3.03;2.37;;;11.20;99.50;;;;;;10508953;28;20941;-79
2023/11/08 16:25:48;;;;;;;2.90;2.40;;;11.00;99.40;;;;;;10503522;28;20213;-80
2023/11/08 16:30:51;;;;;;;2.57;2.40;;;10.80;99.60;;;;;;10514869;28;20212;-79
2023/11/08 16:35:55;;;;;;;4.20;2.93;;;10.70;99.80;;;;;;10475943;28;20212;-79
2023/11/08 16:40:57;;;;;;;4.30;4.00;;;10.60;99.90;;;;;;10495877;28;20646;-79
2023/11/08 16:45:59;;;;;;;3.90;3.57;;;10.50;99.90;;;;;;10502044;28;20556;-78
2023/11/08 16:51:05;;;;;;;7.97;5.90;;;10.40;99.90;;;;;;10502767;28;20220;-79
2023/11/08 16:56:07;;;;;;;6.10;5.50;;;10.40;99.90;;;;;;10501938;28;20225;-78
2023/11/08 17:01:10;;;;;;;10.90;9.07;;;10.20;99.90;;;;;;10482473;28;20274;-78
2023/11/08 17:06:14;;;;;;;4.47;4.07;;;10.20;99.90;;;;;;10499608;28;20293;-79
2023/11/08 17:11:16;;;;;;;4.50;4.10;;;10.20;99.90;;;;;;10500219;28;20246;-78
2023/11/08 17:16:19;;;;;;;5.77;3.90;;;10.10;99.90;;;;;;10500932;28;20196;-78
2023/11/08 17:21:22;;;;;;;4.23;3.83;;;10.00;99.90;;;;;;10504055;28;20217;-77
2023/11/08 17:26:26;;;;;;;4.53;4.13;;;10.00;99.90;;;;;;10491624;28;20580;-78
2023/11/08 17:31:29;;;;;;;4.27;3.87;;;9.90;99.90;;;;;;10491044;28;20232;-77
2023/11/08 17:36:32;;;;;;;4.27;3.93;;;9.90;99.90;;;;;;10491986;28;20212;-78
2023/11/08 17:41:36;;;;;;;5.33;4.33;;;9.90;99.90;;;;;;10476502;28;20221;-78
2023/11/08 17:46:39;;;;;;;6.37;4.60;;;9.80;99.90;;;;;;10483532;28;20717;-78
2023/11/08 17:51:42;;;;;;;4.93;3.80;;;9.80;99.90;;;;;;10495192;28;20224;-77
2023/11/08 17:56:45;;;;;;;10.03;6.10;;;9.80;99.90;;;;;;10504073;28;20249;-77
2023/11/08 18:01:47;;;;;;;5.80;5.30;;;9.70;99.90;;;;;;10478745;28;20635;-77
2023/11/08 18:06:51;;;;;;;4.90;3.47;;;9.70;99.90;;;;;;10494604;28;20200;-77
2023/11/08 18:11:53;;;;;;;5.10;4.60;;;9.70;99.90;;;;;;10499066;28;20216;-78
2023/11/08 18:16:56;;;;;;;4.70;4.23;;;9.80;99.90;;;;;;10496004;28;20200;-77
2023/11/08 18:22:00;;;;;;;4.30;4.00;;;9.80;99.90;;;;;;10505647;28;20216;-78
2023/11/08 18:27:03;;;;;;;4.43;3.87;;;9.80;99.90;;;;;;10486945;28;20196;-78
2023/11/08 18:32:07;;;;;;;4.70;3.90;;;9.80;99.90;;;;;;10505957;28;20644;-78
2023/11/08 18:37:11;;;;;;;4.90;4.50;;;9.80;99.90;;;;;;10490685;28;20208;-78
2023/11/08 18:42:13;;;;;;;5.87;5.40;;;9.80;99.90;;;;;;10502647;28;20212;-79
2023/11/08 18:47:15;;;;;;;5.10;4.70;;;9.80;99.90;;;;;;10506506;28;20200;-79
2023/11/08 18:52:19;;;;;;;4.60;4.20;;;9.80;99.90;;;;;;10505101;28;20220;-79
2023/11/08 18:57:21;;;;;;;4.57;4.27;;;9.80;99.90;;;;;;10505344;28;20207;-79
2023/11/08 19:02:24;;;;;;;5.13;4.67;;;9.80;99.90;;;;;;10486524;28;20224;-78
2023/11/08 19:07:27;;;;;;;5.33;4.83;;;9.80;99.90;;;;;;10502846;28;20673;-79
2023/11/08 19:12:30;;;;;;;5.07;4.67;;;9.80;99.90;;;;;;10501718;28;20780;-79
2023/11/08 19:17:32;;;;;;;5.90;4.80;;;9.80;99.90;;;;;;10503915;28;20200;-79
2023/11/08 19:22:36;;;;;;;6.20;5.60;;;9.80;99.90;;;;;;10487763;28;20231;-78
2023/11/08 19:27:39;;;;;;;5.97;4.83;;;9.80;99.90;;;;;;10508503;28;20693;-79
2023/11/08 19:32:42;;;;;;;5.03;4.63;;;9.80;99.90;;;;;;10475720;28;20298;-79
2023/11/08 19:37:45;;;;;;;7.43;6.67;;;9.70;99.90;;;;;;10502347;28;20573;-79
2023/11/08 19:42:48;;;;;;;8.00;5.80;;;9.70;99.90;;;;;;10500692;28;20212;-79
2023/11/08 19:47:50;;;;;;;6.00;5.40;;;9.60;99.90;;;;;;10499415;28;20200;-79
2023/11/08 19:52:54;;;;;;;9.47;5.67;;;9.50;99.90;;;;;;10506209;28;20224;-79
2023/11/08 19:57:56;;;;;;;6.20;5.70;;;9.50;99.90;;;;;;10505436;28;20200;-79
2023/11/08 20:02:59;;;;;;;6.33;5.73;;;9.40;99.90;;;;;;10500700;28;20294;-77
2023/11/08 20:08:03;;;;;;;7.00;6.30;;;9.40;99.90;;;;;;10500849;28;20200;-78
2023/11/08 20:13:06;;;;;;;4.80;4.23;;;9.40;99.90;;;;;;10478350;28;20647;-78
2023/11/08 20:18:08;;;;;;;5.50;5.00;;;9.40;99.90;;;;;;10493439;28;20934;-77
2023/11/08 20:23:12;;;;;;;6.07;5.57;;;9.40;99.90;;;;;;10501296;28;20223;-77
2023/11/08 20:28:14;;;;;;;10.63;6.00;;;9.40;99.90;;;;;;10497629;28;20201;-78
2023/11/08 20:33:16;;;;;;;5.20;4.70;;;9.40;99.90;;;;;;10487149;28;20213;-76
2023/11/08 20:38:20;;;;;;;7.20;5.43;;;9.40;99.90;;;;;;10486998;28;20189;-77
2023/11/08 20:43:23;;;;;;;5.60;5.00;;;9.30;99.90;;;;;;10486315;28;20220;-77
2023/11/08 20:48:25;;;;;;;5.47;4.93;;;9.30;99.90;;;;;;10492678;28;20188;-78
2023/11/08 20:53:29;;;;;;;4.80;4.40;;;9.20;99.90;;;;;;10498957;28;20224;-78
2023/11/08 20:58:32;;;;;;;5.03;4.63;;;9.20;99.90;;;;;;10497154;28;20196;-78
2023/11/08 21:03:34;;;;;;;6.40;5.10;;;9.10;99.90;;;;;;10493755;28;20309;-79
2023/11/08 21:08:38;;;;;;;6.73;6.00;;;9.00;99.90;;;;;;10495838;28;20192;-79
2023/11/08 21:13:40;;;;;;;5.63;5.10;;;9.00;99.90;;;;;;10496345;28;20209;-78
2023/11/08 21:18:45;;;;;;;5.60;5.10;;;8.90;99.90;;;;;;10492449;28;20254;-79
2023/11/08 21:23:49;;;;;;;8.53;6.23;;;8.90;99.90;;;;;;10492915;28;20196;-79
2023/11/08 21:28:51;;;;;;;6.17;5.57;;;8.90;99.90;;;;;;10495392;28;20196;-79
2023/11/08 21:33:53;;;;;;;5.87;5.27;;;8.80;99.90;;;;;;10470478;28;20642;-79
2023/11/08 21:38:57;;;;;;;5.50;5.00;;;8.80;99.90;;;;;;10477349;28;20542;-80
2023/11/08 21:44:00;;;;;;;5.07;4.67;;;8.70;99.90;;;;;;10494611;28;21172;-80
2023/11/08 21:49:02;;;;;;;6.20;5.67;;;8.70;99.90;;;;;;10501795;28;20219;-79
2023/11/08 21:54:08;;;;;;;6.00;5.30;;;8.80;99.90;;;;;;10511470;28;20200;-77
2023/11/08 21:59:10;;;;;;;5.63;5.13;;;8.80;99.90;;;;;;10509781;28;20270;-79
2023/11/08 22:04:13;;;;;;;6.63;5.30;;;8.80;99.90;;;;;;10495452;28;20200;-79
2023/11/08 22:09:18;;;;;;;5.00;4.43;;;8.80;99.90;;;;;;10509593;28;20265;-79
2023/11/08 22:14:21;;;;;;;5.63;5.13;;;8.80;99.90;;;;;;10509908;28;20208;-79
2023/11/08 22:19:23;;;;;;;5.07;4.40;;;8.80;99.90;;;;;;10505260;28;20224;-79
2023/11/08 22:24:27;;;;;;;5.27;4.87;;;8.80;99.90;;;;;;10513258;28;20205;-78
2023/11/08 22:29:30;;;;;;;5.47;4.97;;;8.70;99.90;;;;;;10506483;28;20708;-79
2023/11/08 22:34:35;;;;;;;5.07;4.57;;;8.70;99.90;;;;;;10503629;28;20246;-79
2023/11/08 22:39:38;;;;;;;5.47;4.53;;;8.60;99.90;;;;;;10503215;28;20327;-79
2023/11/08 22:44:41;;;;;;;4.63;4.23;;;8.60;99.90;;;;;;10503394;28;20239;-79
2023/11/08 22:49:44;;;;;;;4.87;4.40;;;8.60;99.90;;;;;;10501653;28;20346;-79
2023/11/08 22:54:47;;;;;;;5.00;4.50;;;8.60;99.90;;;;;;10510980;28;20241;-80
2023/11/08 22:59:51;;;;;;;3.60;3.40;;;8.60;99.90;;;;;;10509364;28;20231;-80
2023/11/08 23:04:54;;;;;;;5.13;4.33;;;8.60;99.90;;;;;;10509008;28;20305;-80
2023/11/08 23:09:58;;;;;;;5.77;5.27;;;8.60;99.90;;;;;;10508018;28;20555;-79
2023/11/08 23:15:02;;;;;;;5.10;4.60;;;8.60;99.90;;;;;;10507228;28;20254;-80
2023/11/08 23:20:06;;;;;;;5.07;4.67;;;8.70;99.90;;;;;;10489590;28;20223;-79
2023/11/08 23:25:10;;;;;;;5.17;4.67;;;8.70;99.90;;;;;;10488548;28;20211;-78
2023/11/08 23:30:13;;;;;;;4.93;4.40;;;8.70;99.90;;;;;;10509442;28;20270;-80
2023/11/08 23:35:16;;;;;;;9.50;4.63;;;8.70;99.90;;;;;;10506244;28;20227;-79
2023/11/08 23:40:20;;;;;;;4.80;4.30;;;8.70;99.90;;;;;;10507171;28;20212;-79
2023/11/08 23:45:23;;;;;;;4.50;4.10;;;8.60;99.90;;;;;;10499442;28;20204;-78
2023/11/08 23:50:25;;;;;;;4.50;4.20;;;8.60;99.90;;;;;;10498883;28;20262;-80
2023/11/08 23:55:29;;;;;;;5.50;5.00;;;8.50;99.90;;;;;;10490085;28;20685;-79
